Time;durP1;ratioP1;P1;durP2;ratioP2;P2;SDS_P1;SDS_P2;PMS_P1;PMS_P2;Temp;Humidity;BMP_temperature;BMP_pressure;BME280_temperature;BME280_humidity;BME280_pressure;Samples;Min_cycle;Max_cycle;Signal;HPM_P1;HPM_P2
2022/09/01 00:01:49;;;;;;;8.77;7.47;;;15.30;83.00;;;;;;4996588;28;20060;-75
2022/09/01 00:04:20;;;;;;;9.25;6.78;;;15.30;82.80;;;;;;4991962;28;20022;-74
2022/09/01 00:06:47;;;;;;;10.70;7.55;;;15.30;82.40;;;;;;4995570;28;20390;-75
2022/09/01 00:09:17;;;;;;;10.75;7.75;;;15.30;82.10;;;;;;4996577;28;20030;-75
2022/09/01 00:11:45;;;;;;;11.48;7.93;;;15.20;82.70;;;;;;4996424;28;20417;-73
2022/09/01 00:14:11;;;;;;;9.05;7.30;;;15.10;82.90;;;;;;4984017;28;20030;-75
2022/09/01 00:16:37;;;;;;;8.88;7.43;;;15.20;82.90;;;;;;4997932;28;20096;-73
2022/09/01 00:19:04;;;;;;;8.75;7.03;;;15.20;82.70;;;;;;4996706;28;20498;-73
2022/09/01 00:21:34;;;;;;;9.88;7.22;;;15.10;82.70;;;;;;4997332;28;20055;-73
2022/09/01 00:24:00;;;;;;;11.10;7.70;;;15.10;82.50;;;;;;4996334;28;20036;-73
2022/09/01 00:26:27;;;;;;;12.07;8.10;;;15.10;82.40;;;;;;4995990;28;20429;-75
2022/09/01 00:28:55;;;;;;;12.05;7.82;;;15.00;82.40;;;;;;5014049;28;20017;-73
2022/09/01 00:31:22;;;;;;;10.82;7.72;;;15.00;82.90;;;;;;4996405;28;20026;-72
2022/09/01 00:33:49;;;;;;;8.40;6.88;;;14.90;83.10;;;;;;4995933;28;20458;-73
2022/09/01 00:36:16;;;;;;;11.43;7.70;;;14.90;83.40;;;;;;4996027;28;20022;-73
2022/09/01 00:38:42;;;;;;;10.23;8.18;;;14.80;83.60;;;;;;4996148;28;20088;-74
2022/09/01 00:41:08;;;;;;;8.80;7.45;;;14.90;83.60;;;;;;4996016;28;20076;-72
2022/09/01 00:43:49;;;;;;;13.32;8.50;;;14.80;83.40;;;;;;4995823;28;20382;-75
2022/09/01 00:46:31;;;;;;;14.32;8.45;;;14.70;83.20;;;;;;4996224;28;20022;-74
2022/09/01 00:49:21;;;;;;;12.73;7.88;;;14.60;83.70;;;;;;4996128;28;20029;-74
2022/09/01 00:51:51;;;;;;;11.45;7.97;;;14.50;84.20;;;;;;4995665;28;20501;-74
2022/09/01 00:54:22;;;;;;;12.77;8.48;;;14.50;84.50;;;;;;4995785;28;20437;-74
2022/09/01 00:56:49;;;;;;;13.38;7.72;;;14.50;85.60;;;;;;4996041;28;20108;-74
2022/09/01 00:59:17;;;;;;;11.02;8.13;;;14.40;85.00;;;;;;4995995;28;20026;-74
2022/09/01 01:01:43;;;;;;;11.45;8.25;;;14.40;84.80;;;;;;4995838;28;20019;-74
2022/09/01 01:04:13;;;;;;;12.52;7.90;;;14.30;84.80;;;;;;4995739;28;20034;-75
2022/09/01 01:06:49;;;;;;;11.48;8.63;;;14.30;85.00;;;;;;4995765;28;20027;-74
2022/09/01 01:09:20;;;;;;;13.50;8.40;;;14.30;85.00;;;;;;4995901;28;20125;-77
2022/09/01 01:11:47;;;;;;;10.85;7.90;;;14.30;84.80;;;;;;4995556;28;20072;-74
2022/09/01 01:14:16;;;;;;;14.35;9.73;;;14.30;85.10;;;;;;4995628;28;20430;-74
2022/09/01 01:16:45;;;;;;;10.70;8.25;;;14.20;85.10;;;;;;5013339;28;20466;-78
2022/09/01 01:25:06;;;;;;;10.32;8.40;;;14.00;85.90;;;;;;5017534;28;20091;-76
2022/09/01 01:27:33;;;;;;;12.80;8.85;;;14.00;86.10;;;;;;4999478;28;20528;-78
2022/09/01 01:30:02;;;;;;;13.35;9.23;;;14.00;86.10;;;;;;4999721;28;20034;-77
2022/09/01 01:32:28;;;;;;;13.00;8.93;;;14.00;86.00;;;;;;4983259;28;20464;-78
2022/09/01 01:34:55;;;;;;;11.93;9.27;;;14.00;86.40;;;;;;4999663;28;20030;-78
2022/09/01 01:37:23;;;;;;;13.57;9.95;;;14.00;86.50;;;;;;4999646;28;20037;-78
2022/09/01 01:39:49;;;;;;;13.18;9.25;;;14.00;86.30;;;;;;4999129;28;20030;-77
2022/09/01 01:42:15;;;;;;;11.48;9.18;;;14.00;86.20;;;;;;4999199;28;20052;-78
2022/09/01 01:44:41;;;;;;;12.48;8.90;;;14.00;87.10;;;;;;4999054;28;20529;-78
2022/09/01 01:47:11;;;;;;;12.30;8.82;;;14.00;86.60;;;;;;4999317;28;20025;-79
2022/09/01 01:49:42;;;;;;;12.63;7.82;;;14.00;86.40;;;;;;4999065;28;20026;-77
2022/09/01 01:52:09;;;;;;;13.25;8.52;;;14.00;86.40;;;;;;4999208;28;20033;-77
2022/09/01 01:54:34;;;;;;;14.55;10.00;;;14.10;86.50;;;;;;4999155;28;20044;-76
2022/09/01 01:57:04;;;;;;;14.75;9.07;;;14.20;86.00;;;;;;4999073;28;20469;-77
2022/09/01 01:59:29;;;;;;;11.90;9.32;;;14.20;85.90;;;;;;4999129;28;20034;-77
2022/09/01 02:01:55;;;;;;;10.30;8.90;;;14.10;86.70;;;;;;4999276;28;20038;-77
2022/09/01 02:04:22;;;;;;;14.02;8.90;;;14.20;85.80;;;;;;4998880;28;20026;-75
2022/09/01 02:06:48;;;;;;;14.10;9.75;;;14.30;85.60;;;;;;4998997;28;20026;-77
2022/09/01 02:09:18;;;;;;;11.70;8.23;;;14.20;85.10;;;;;;4999176;28;20022;-78
2022/09/01 02:11:44;;;;;;;11.50;8.85;;;14.30;85.10;;;;;;4998661;28;20037;-74
2022/09/01 02:14:12;;;;;;;11.40;7.97;;;14.30;85.10;;;;;;4998901;28;20022;-77
2022/09/01 02:16:38;;;;;;;10.43;7.95;;;14.30;85.10;;;;;;4998669;28;20386;-77
2022/09/01 02:19:07;;;;;;;10.57;7.45;;;14.30;84.90;;;;;;4998852;28;20033;-76
2022/09/01 02:21:33;;;;;;;11.48;8.23;;;14.40;84.80;;;;;;4998565;28;20116;-78
2022/09/01 02:24:02;;;;;;;11.40;9.50;;;14.40;84.70;;;;;;4998152;28;20052;-78
2022/09/01 02:26:33;;;;;;;11.73;9.38;;;14.40;84.70;;;;;;4998691;28;20053;-77
2022/09/01 02:29:03;;;;;;;12.98;10.80;;;14.50;84.90;;;;;;4997369;28;20029;-78
2022/09/01 02:31:34;;;;;;;16.52;12.25;;;14.40;84.70;;;;;;4998512;28;20026;-77
2022/09/01 02:34:02;;;;;;;15.40;12.63;;;14.40;84.90;;;;;;4998303;28;20018;-77
2022/09/01 02:36:31;;;;;;;16.77;12.57;;;14.50;85.40;;;;;;4998261;28;20029;-77
2022/09/01 02:38:57;;;;;;;14.82;11.18;;;14.50;85.60;;;;;;4998381;28;20557;-77
2022/09/01 02:41:23;;;;;;;14.38;10.35;;;14.60;85.50;;;;;;4998362;28;20117;-77
2022/09/01 02:43:49;;;;;;;15.23;11.45;;;14.60;85.20;;;;;;4998192;28;20034;-78
2022/09/01 02:46:15;;;;;;;15.82;11.77;;;14.70;85.00;;;;;;4998020;28;20029;-77
2022/09/01 02:48:44;;;;;;;15.27;12.32;;;14.70;84.80;;;;;;4998282;28;20562;-77
2022/09/01 02:51:16;;;;;;;12.07;9.35;;;14.80;84.90;;;;;;4997992;28;20530;-77
2022/09/01 02:53:43;;;;;;;9.73;8.48;;;14.80;84.50;;;;;;4998170;28;20080;-78
2022/09/01 02:56:12;;;;;;;9.45;7.85;;;14.80;83.90;;;;;;4994358;28;20126;-78
2022/09/01 02:58:44;;;;;;;10.55;7.53;;;14.80;84.00;;;;;;4994674;28;20034;-78
2022/09/01 03:01:26;;;;;;;10.23;8.73;;;14.80;84.00;;;;;;4994597;28;20033;-77
2022/09/01 03:04:04;;;;;;;14.20;10.05;;;14.90;83.90;;;;;;4994702;28;20023;-77
2022/09/01 03:06:32;;;;;;;11.20;8.30;;;14.90;83.80;;;;;;4994582;28;20442;-78
2022/09/01 03:08:59;;;;;;;12.93;10.20;;;15.00;83.80;;;;;;4994821;28;20092;-77
2022/09/01 03:11:28;;;;;;;10.80;9.15;;;15.00;83.90;;;;;;4994469;28;20509;-78
2022/09/01 03:13:53;;;;;;;14.50;10.05;;;15.00;83.90;;;;;;4994684;28;20485;-78
2022/09/01 03:16:21;;;;;;;15.27;9.77;;;15.00;83.70;;;;;;4994180;28;20030;-74
2022/09/01 03:18:46;;;;;;;12.30;9.15;;;15.00;83.70;;;;;;4994424;28;20181;-74
2022/09/01 03:21:15;;;;;;;13.60;10.57;;;15.00;83.70;;;;;;4993908;28;20109;-78
2022/09/01 03:23:42;;;;;;;14.20;10.48;;;15.00;83.60;;;;;;4994292;28;20026;-78
2022/09/01 03:26:08;;;;;;;12.07;8.90;;;15.00;83.60;;;;;;4994180;28;20023;-77
2022/09/01 03:28:36;;;;;;;13.23;9.00;;;15.00;84.20;;;;;;4994200;28;20032;-78
2022/09/01 03:31:02;;;;;;;12.95;10.93;;;15.00;83.40;;;;;;4994205;28;20077;-78
2022/09/01 03:33:28;;;;;;;12.93;9.45;;;15.00;83.40;;;;;;4994249;28;20026;-76
2022/09/01 03:35:54;;;;;;;12.00;9.90;;;15.00;83.30;;;;;;4994044;28;20026;-77
2022/09/01 03:38:23;;;;;;;10.45;8.15;;;15.10;83.70;;;;;;4993574;28;20554;-77
2022/09/01 03:41:00;;;;;;;10.23;8.48;;;15.10;83.60;;;;;;4993325;28;20034;-73
2022/09/01 03:43:28;;;;;;;10.27;8.43;;;15.10;83.40;;;;;;4994036;28;20471;-76
2022/09/01 03:46:00;;;;;;;10.95;8.77;;;15.10;83.30;;;;;;4993765;28;20414;-74
2022/09/01 03:48:32;;;;;;;9.63;7.45;;;15.20;83.40;;;;;;4993797;28;20026;-78
2022/09/01 03:51:01;;;;;;;13.43;11.30;;;15.20;83.20;;;;;;4993587;28;20027;-74
2022/09/01 03:53:29;;;;;;;11.38;9.10;;;15.30;83.00;;;;;;4993523;28;20065;-78
2022/09/01 03:55:56;;;;;;;10.75;8.18;;;15.30;82.90;;;;;;4993356;28;20130;-77
2022/09/01 03:58:23;;;;;;;15.95;10.52;;;15.30;82.90;;;;;;4993676;28;20489;-76
2022/09/01 04:00:54;;;;;;;14.80;9.63;;;15.30;82.80;;;;;;4993581;28;20019;-77
2022/09/01 04:03:25;;;;;;;11.75;9.23;;;15.30;82.80;;;;;;4994168;28;20030;-77
2022/09/01 04:05:52;;;;;;;13.48;9.88;;;15.30;82.80;;;;;;4996810;28;20026;-77
2022/09/01 04:08:19;;;;;;;11.18;9.88;;;15.40;82.70;;;;;;4997863;28;20556;-76
2022/09/01 04:10:50;;;;;;;14.23;9.07;;;15.30;82.70;;;;;;4994745;28;20030;-75
2022/09/01 04:13:25;;;;;;;11.82;9.57;;;15.40;82.60;;;;;;4994203;28;20022;-77
2022/09/01 04:15:52;;;;;;;11.95;9.23;;;15.40;82.50;;;;;;4993935;28;20120;-76
2022/09/01 04:18:22;;;;;;;14.88;11.25;;;15.40;82.00;;;;;;4994396;28;20097;-77
2022/09/01 04:20:56;;;;;;;11.98;9.20;;;15.50;82.20;;;;;;4993081;28;20136;-76
2022/09/01 04:23:41;;;;;;;11.55;9.60;;;15.50;82.20;;;;;;4993134;28;20088;-77
2022/09/01 04:26:13;;;;;;;11.90;9.25;;;15.50;82.10;;;;;;4993283;28;20026;-78
2022/09/01 04:28:45;;;;;;;13.63;10.18;;;15.50;82.10;;;;;;4993128;28;20031;-78
2022/09/01 04:31:16;;;;;;;16.15;11.73;;;15.50;82.00;;;;;;4992953;28;20026;-78
2022/09/01 04:33:45;;;;;;;16.83;11.30;;;15.60;81.90;;;;;;4993206;28;20034;-77
2022/09/01 04:36:31;;;;;;;19.42;11.50;;;15.50;82.20;;;;;;4992966;28;20092;-77
2022/09/01 04:38:59;;;;;;;17.45;12.52;;;15.20;82.90;;;;;;4993029;28;20034;-78
2022/09/01 04:41:30;;;;;;;14.13;11.70;;;15.20;82.90;;;;;;4992880;28;20438;-77
2022/09/01 04:43:58;;;;;;;16.08;10.63;;;15.10;83.20;;;;;;4992989;28;20430;-76
2022/09/01 04:46:27;;;;;;;15.98;10.15;;;15.10;83.50;;;;;;5009462;28;20030;-77
2022/09/01 04:48:56;;;;;;;16.83;10.90;;;15.00;84.30;;;;;;4992675;28;20057;-76
2022/09/01 04:51:26;;;;;;;14.15;10.05;;;15.00;84.30;;;;;;4992154;28;20471;-74
2022/09/01 04:53:56;;;;;;;16.17;11.93;;;15.00;84.40;;;;;;4992570;28;20026;-77
2022/09/01 04:56:24;;;;;;;13.90;10.32;;;15.00;84.30;;;;;;4992455;28;20081;-76
2022/09/01 04:58:54;;;;;;;12.82;10.40;;;15.00;84.70;;;;;;4992598;28;20022;-77
2022/09/01 05:01:22;;;;;;;15.65;9.35;;;15.00;84.60;;;;;;4992684;28;20023;-76
2022/09/01 05:03:55;;;;;;;15.13;11.98;;;15.10;84.40;;;;;;4992666;28;20081;-77
2022/09/01 05:06:23;;;;;;;11.48;9.57;;;15.10;84.20;;;;;;4992525;28;20025;-77
2022/09/01 05:08:50;;;;;;;13.68;10.75;;;15.10;84.20;;;;;;4992425;28;20030;-76
2022/09/01 05:11:16;;;;;;;16.60;11.05;;;15.10;84.10;;;;;;4992557;28;20033;-78
2022/09/01 05:13:48;;;;;;;13.48;10.18;;;15.20;84.00;;;;;;4992527;28;20026;-78
2022/09/01 05:16:20;;;;;;;13.40;10.27;;;15.20;83.70;;;;;;4992772;28;20034;-78
2022/09/01 05:18:48;;;;;;;13.68;11.20;;;15.30;83.70;;;;;;4991886;28;20493;-74
2022/09/01 05:21:20;;;;;;;17.73;11.23;;;15.30;83.50;;;;;;4992298;28;20470;-84
2022/09/01 05:23:48;;;;;;;13.68;9.20;;;15.30;83.40;;;;;;4993353;28;20033;-80
2022/09/01 05:26:16;;;;;;;18.42;11.93;;;15.50;83.90;;;;;;4992745;28;20479;-79
2022/09/01 05:28:48;;;;;;;10.52;8.38;;;15.50;83.60;;;;;;4992593;28;20478;-80
2022/09/01 05:31:18;;;;;;;19.40;11.77;;;15.50;83.40;;;;;;4992695;28;20029;-75
2022/09/01 05:33:47;;;;;;;14.88;10.75;;;15.50;82.70;;;;;;4993031;28;20026;-73
2022/09/01 05:36:16;;;;;;;18.35;10.30;;;15.40;82.70;;;;;;4992482;28;20022;-74
2022/09/01 05:38:43;;;;;;;19.75;10.63;;;15.40;84.70;;;;;;4992291;28;20089;-76
2022/09/01 05:41:13;;;;;;;22.60;10.80;;;15.80;88.30;;;;;;4992294;28;20030;-76
2022/09/01 05:43:51;;;;;;;11.65;9.85;;;16.10;86.10;;;;;;4992335;28;20034;-77
2022/09/01 05:46:25;;;;;;;15.60;9.68;;;16.20;83.80;;;;;;4992450;28;20379;-76
2022/09/01 05:48:52;;;;;;;13.10;10.07;;;16.40;82.50;;;;;;4992357;28;20365;-76
2022/09/01 05:51:25;;;;;;;16.00;9.65;;;16.50;81.50;;;;;;4992104;28;20030;-77
2022/09/01 05:53:55;;;;;;;22.17;10.98;;;16.50;80.80;;;;;;4991966;28;20042;-76
2022/09/01 05:56:23;;;;;;;19.02;10.55;;;16.60;80.30;;;;;;4991766;28;20486;-77
2022/09/01 05:59:01;;;;;;;11.52;8.65;;;16.50;79.50;;;;;;4993011;28;20364;-74
2022/09/01 06:01:30;;;;;;;15.68;10.80;;;16.50;79.30;;;;;;4992099;28;20054;-74
2022/09/01 06:03:58;;;;;;;16.58;10.48;;;16.40;79.50;;;;;;4994096;28;20026;-74
2022/09/01 06:06:29;;;;;;;16.48;9.80;;;16.40;79.70;;;;;;4995431;28;20029;-75
2022/09/01 06:08:58;;;;;;;16.00;11.82;;;16.60;79.80;;;;;;4995335;28;20475;-74
2022/09/01 06:11:25;;;;;;;14.52;9.80;;;16.50;79.00;;;;;;4995600;28;20425;-74
2022/09/01 06:13:55;;;;;;;12.40;9.55;;;16.60;79.80;;;;;;4995720;28;20391;-74
2022/09/01 06:16:23;;;;;;;30.58;11.95;;;16.70;79.70;;;;;;4995323;28;20018;-73
2022/09/01 06:18:51;;;;;;;15.70;10.93;;;16.60;79.20;;;;;;4995278;28;20042;-72
2022/09/01 06:21:17;;;;;;;18.10;10.68;;;16.70;79.30;;;;;;4995133;28;20506;-73
2022/09/01 06:23:43;;;;;;;23.17;10.07;;;16.80;79.00;;;;;;4995131;28;20030;-73
2022/09/01 06:26:29;;;;;;;39.47;13.23;;;16.80;78.70;;;;;;4995123;28;20027;-73
2022/09/01 06:28:57;;;;;;;;;;;17.00;78.20;;;;;;4995228;28;20463;-75
2022/09/01 06:31:28;;;;;;;15.57;9.15;;;17.20;77.50;;;;;;4994747;28;19992;-75
2022/09/01 06:33:54;;;;;;;19.02;8.38;;;17.20;77.20;;;;;;4994720;28;20026;-74
2022/09/01 06:36:22;;;;;;;13.65;8.38;;;17.30;77.20;;;;;;4994730;28;20041;-73
2022/09/01 06:38:51;;;;;;;15.65;8.15;;;17.30;77.00;;;;;;4995008;28;20089;-72
2022/09/01 06:41:18;;;;;;;13.30;8.43;;;17.40;76.60;;;;;;4996336;28;20025;-76
2022/09/01 06:43:47;;;;;;;14.35;9.07;;;17.50;76.50;;;;;;4994788;28;20084;-76
2022/09/01 06:46:12;;;;;;;14.02;8.02;;;17.50;76.20;;;;;;4994611;28;20026;-79
2022/09/01 06:48:38;;;;;;;17.60;7.95;;;17.50;76.00;;;;;;4994718;28;20026;-78
2022/09/01 06:51:08;;;;;;;13.15;8.40;;;17.60;76.00;;;;;;4994809;28;20030;-81
2022/09/01 06:53:34;;;;;;;12.82;7.75;;;17.60;75.70;;;;;;4994839;28;20046;-76
2022/09/01 06:55:59;;;;;;;15.70;9.23;;;17.70;75.70;;;;;;4994341;28;20129;-78
2022/09/01 06:58:26;;;;;;;14.07;8.82;;;17.80;75.50;;;;;;4995280;28;20030;-80
2022/09/01 07:00:52;;;;;;;14.70;8.70;;;17.70;75.50;;;;;;4994729;28;20018;-78
2022/09/01 07:03:17;;;;;;;13.70;8.10;;;17.80;75.40;;;;;;4994108;28;20117;-79
2022/09/01 07:05:45;;;;;;;14.35;7.82;;;17.80;75.20;;;;;;4994495;28;20116;-77
2022/09/01 07:08:16;;;;;;;10.57;7.50;;;17.90;75.20;;;;;;4993137;28;20109;-77
2022/09/01 07:10:45;;;;;;;14.20;7.75;;;18.00;75.00;;;;;;4992922;28;20026;-76
2022/09/01 07:13:18;;;;;;;12.95;9.27;;;18.10;74.50;;;;;;4992569;28;20060;-76
2022/09/01 07:15:47;;;;;;;16.30;9.88;;;18.10;74.50;;;;;;4993789;28;20371;-76
2022/09/01 07:18:16;;;;;;;18.23;9.57;;;18.10;74.50;;;;;;4993978;28;20490;-76
2022/09/01 07:20:42;;;;;;;11.80;7.72;;;18.10;74.40;;;;;;4994297;28;20034;-76
2022/09/01 07:23:07;;;;;;;14.27;7.82;;;18.10;74.60;;;;;;4992953;28;20029;-76
2022/09/01 07:25:37;;;;;;;9.48;7.82;;;18.20;74.50;;;;;;4993286;28;20375;-76
2022/09/01 07:28:04;;;;;;;12.77;9.02;;;18.20;74.20;;;;;;4994255;28;20383;-76
2022/09/01 07:30:30;;;;;;;9.43;7.75;;;18.30;74.00;;;;;;4994152;28;20113;-76
2022/09/01 07:32:56;;;;;;;10.57;7.78;;;18.40;73.70;;;;;;4994187;28;20387;-75
2022/09/01 07:35:22;;;;;;;11.18;7.57;;;18.50;73.50;;;;;;4994124;28;20022;-76
2022/09/01 07:37:49;;;;;;;10.80;7.57;;;18.50;73.30;;;;;;4993817;28;20034;-76
2022/09/01 07:40:17;;;;;;;11.93;7.43;;;18.60;72.80;;;;;;4993702;28;20041;-76
2022/09/01 07:42:48;;;;;;;9.95;7.57;;;18.70;72.70;;;;;;4992719;28;20026;-76
2022/09/01 07:45:15;;;;;;;9.50;8.07;;;18.80;72.20;;;;;;4993726;28;20033;-76
2022/09/01 07:47:43;;;;;;;12.90;8.43;;;18.80;72.30;;;;;;4993483;28;20033;-76
2022/09/01 07:50:13;;;;;;;9.55;8.63;;;18.80;72.80;;;;;;4993600;28;20022;-78
2022/09/01 07:52:46;;;;;;;9.65;8.27;;;18.80;72.70;;;;;;4993726;28;20498;-75
2022/09/01 07:55:14;;;;;;;12.48;9.48;;;18.80;72.60;;;;;;4993398;28;20180;-75
2022/09/01 07:57:41;;;;;;;9.32;8.43;;;18.80;72.40;;;;;;4993645;28;20128;-76
2022/09/01 08:00:10;;;;;;;10.38;8.68;;;18.80;72.10;;;;;;4993563;28;20022;-75
2022/09/01 08:02:37;;;;;;;11.43;8.90;;;18.90;72.20;;;;;;4993850;28;20026;-75
2022/09/01 08:05:08;;;;;;;12.82;9.73;;;18.70;72.70;;;;;;4998158;28;20022;-76
2022/09/01 08:07:34;;;;;;;8.95;8.05;;;18.70;73.30;;;;;;4995416;28;20475;-78
2022/09/01 08:10:00;;;;;;;14.63;8.48;;;18.70;73.50;;;;;;4993443;28;20093;-77
2022/09/01 08:12:26;;;;;;;10.48;8.80;;;18.70;73.80;;;;;;4993119;28;20384;-78
2022/09/01 08:14:52;;;;;;;11.57;8.40;;;18.80;73.40;;;;;;4993274;28;20026;-75
2022/09/01 08:17:19;;;;;;;8.90;7.43;;;18.80;73.00;;;;;;4992991;28;20069;-76
2022/09/01 08:19:45;;;;;;;12.93;9.65;;;18.90;72.90;;;;;;4992961;28;20030;-75
2022/09/01 08:22:13;;;;;;;14.57;8.68;;;19.00;72.70;;;;;;4994157;28;20050;-76
2022/09/01 08:24:39;;;;;;;21.00;9.30;;;19.00;72.50;;;;;;4993081;28;20116;-78
2022/09/01 08:27:04;;;;;;;16.70;9.15;;;19.10;72.30;;;;;;4991979;28;20401;-75
2022/09/01 08:29:30;;;;;;;15.40;9.52;;;19.20;72.10;;;;;;4991633;28;20026;-74
2022/09/01 08:31:57;;;;;;;14.27;8.60;;;19.30;71.90;;;;;;4991905;28;20060;-75
2022/09/01 08:34:24;;;;;;;21.30;9.52;;;19.40;71.50;;;;;;4992763;28;20467;-76
2022/09/01 08:36:50;;;;;;;13.95;8.57;;;19.40;71.20;;;;;;4976109;28;20043;-78
2022/09/01 08:39:16;;;;;;;11.07;8.10;;;19.40;72.00;;;;;;4993055;28;20037;-79
2022/09/01 08:41:47;;;;;;;11.77;7.57;;;19.40;71.00;;;;;;4992375;28;20034;-80
2022/09/01 08:44:47;;;;;;;19.73;10.15;;;19.50;70.80;;;;;;4991143;28;20414;-79
2022/09/01 08:47:16;;;;;;;13.30;8.60;;;19.50;71.10;;;;;;4990009;28;20029;-77
2022/09/01 08:49:48;;;;;;;12.52;7.15;;;19.60;71.30;;;;;;4991763;28;20026;-75
2022/09/01 08:52:34;;;;;;;14.27;6.80;;;19.70;70.30;;;;;;4993832;28;20121;-75
2022/09/01 08:55:20;;;;;;;10.13;6.43;;;19.80;69.70;;;;;;4992088;28;20057;-77
2022/09/01 08:57:50;;;;;;;9.00;7.57;;;19.80;69.70;;;;;;4992201;28;20505;-78
2022/09/01 09:00:19;;;;;;;10.85;6.30;;;19.80;69.90;;;;;;4992385;28;20033;-75
2022/09/01 09:02:50;;;;;;;6.57;5.93;;;19.90;68.90;;;;;;4992319;28;20026;-77
2022/09/01 09:05:49;;;;;;;7.15;5.30;;;20.00;67.60;;;;;;4992922;28;20041;-78
2022/09/01 09:08:42;;;;;;;6.82;4.53;;;20.20;66.80;;;;;;4967035;28;20180;-82
2022/09/01 09:11:28;;;;;;;6.18;4.32;;;20.50;65.40;;;;;;5008858;28;20564;-80
2022/09/01 09:14:14;;;;;;;4.35;3.35;;;20.60;63.60;;;;;;4992237;28;20110;-78
2022/09/01 09:16:48;;;;;;;6.68;3.33;;;20.70;62.70;;;;;;4992149;28;20125;-79
2022/09/01 09:19:25;;;;;;;9.25;3.88;;;20.70;60.30;;;;;;4992713;28;20121;-79
2022/09/01 09:21:55;;;;;;;9.80;3.85;;;20.80;60.40;;;;;;4992898;28;20054;-78
2022/09/01 09:24:49;;;;;;;8.13;3.92;;;20.90;59.70;;;;;;4992259;28;20474;-79
2022/09/01 09:27:25;;;;;;;7.68;3.65;;;21.00;59.40;;;;;;4993172;28;20022;-78
2022/09/01 09:29:53;;;;;;;8.93;2.92;;;21.00;58.60;;;;;;4991838;28;20039;-79
2022/09/01 09:32:21;;;;;;;6.18;3.53;;;21.00;58.10;;;;;;4992063;28;20426;-80
2022/09/01 09:34:49;;;;;;;5.03;2.92;;;21.10;58.40;;;;;;4975940;28;20031;-79
2022/09/01 09:37:15;;;;;;;4.82;2.63;;;21.10;58.40;;;;;;4976195;28;20081;-78
2022/09/01 09:39:41;;;;;;;3.65;2.67;;;21.10;57.50;;;;;;4995538;28;20121;-78
2022/09/01 09:42:12;;;;;;;2.83;2.55;;;21.10;56.70;;;;;;4995950;28;20092;-76
2022/09/01 09:44:44;;;;;;;3.80;2.42;;;21.10;56.10;;;;;;4979256;28;20022;-78
2022/09/01 09:47:29;;;;;;;2.65;2.22;;;21.10;56.00;;;;;;4995902;28;20030;-76
2022/09/01 09:50:11;;;;;;;3.65;2.25;;;21.10;55.80;;;;;;4995852;28;20046;-80
2022/09/01 09:52:36;;;;;;;2.67;2.25;;;21.20;55.00;;;;;;4995844;28;20030;-78
2022/09/01 09:55:20;;;;;;;2.45;2.17;;;21.30;53.70;;;;;;4995507;28;20054;-77
2022/09/01 09:57:48;;;;;;;3.50;2.08;;;21.40;56.50;;;;;;4995637;28;20129;-77
2022/09/01 10:00:29;;;;;;;2.17;2.00;;;21.70;54.70;;;;;;4995175;28;20022;-77
2022/09/01 10:03:01;;;;;;;3.33;2.03;;;22.00;53.30;;;;;;4995287;28;20069;-78
2022/09/01 10:05:39;;;;;;;3.60;2.25;;;22.00;51.10;;;;;;4996799;28;20027;-78
2022/09/01 10:08:33;;;;;;;3.03;2.50;;;22.00;53.30;;;;;;4978224;28;20410;-79
2022/09/01 10:11:05;;;;;;;2.92;2.47;;;22.00;54.30;;;;;;4995245;28;20023;-79
2022/09/01 10:13:34;;;;;;;2.30;1.77;;;22.20;52.50;;;;;;4995687;28;20482;-78
2022/09/01 10:16:18;;;;;;;8.23;2.35;;;22.30;51.20;;;;;;4995132;28;20102;-78
2022/09/01 10:18:47;;;;;;;4.43;2.47;;;22.40;51.20;;;;;;4978627;28;20051;-78
2022/09/01 10:21:17;;;;;;;3.55;2.22;;;22.30;49.80;;;;;;4995078;28;20022;-79
2022/09/01 10:23:44;;;;;;;2.17;1.98;;;22.20;50.30;;;;;;4995125;28;20034;-79
2022/09/01 10:26:22;;;;;;;2.63;2.20;;;22.00;50.60;;;;;;4994836;28;20030;-79
2022/09/01 10:28:59;;;;;;;3.08;2.42;;;22.00;51.00;;;;;;4995164;28;20061;-79
2022/09/01 10:31:26;;;;;;;3.03;2.67;;;22.20;51.20;;;;;;4995399;28;20030;-80
2022/09/01 10:33:52;;;;;;;3.45;2.28;;;22.30;50.40;;;;;;4994950;28;20135;-81
2022/09/01 10:36:21;;;;;;;3.63;2.67;;;22.40;50.30;;;;;;4995122;28;20058;-81
2022/09/01 10:39:21;;;;;;;3.15;2.53;;;22.40;48.50;;;;;;4994808;28;20034;-82
2022/09/01 10:42:06;;;;;;;3.90;2.25;;;22.20;49.10;;;;;;4995712;28;20134;-80
2022/09/01 10:44:37;;;;;;;2.40;2.20;;;22.00;48.90;;;;;;4995105;28;20033;-80
2022/09/01 10:47:10;;;;;;;2.47;2.28;;;22.10;50.00;;;;;;4994986;28;20081;-80
2022/09/01 10:49:45;;;;;;;4.72;2.53;;;22.20;49.80;;;;;;4977648;28;20027;-80
2022/09/01 10:52:45;;;;;;;3.63;2.50;;;22.10;49.80;;;;;;4994531;28;20053;-81
2022/09/01 10:55:36;;;;;;;3.78;2.13;;;22.20;50.30;;;;;;4994410;28;20039;-80
2022/09/01 10:58:38;;;;;;;3.38;2.63;;;22.40;50.00;;;;;;4994479;28;20133;-81
2022/09/01 11:01:05;;;;;;;3.15;2.08;;;22.90;48.40;;;;;;4994451;28;20022;-80
2022/09/01 11:03:38;;;;;;;2.65;2.45;;;23.10;45.30;;;;;;4994264;28;20485;-77
2022/09/01 11:06:08;;;;;;;2.40;2.20;;;23.20;46.90;;;;;;4994703;28;20044;-79
2022/09/01 11:08:36;;;;;;;3.20;2.30;;;23.30;46.40;;;;;;4994505;28;20031;-79
2022/09/01 11:11:24;;;;;;;4.90;3.22;;;23.20;47.90;;;;;;4994443;28;20018;-77
2022/09/01 11:13:54;;;;;;;2.17;2.03;;;23.20;48.80;;;;;;4994714;28;20034;-78
2022/09/01 11:16:28;;;;;;;6.45;3.35;;;23.20;48.70;;;;;;4993921;28;20037;-78
2022/09/01 11:19:14;;;;;;;3.30;2.85;;;23.20;47.80;;;;;;4994239;28;20056;-78
2022/09/01 11:21:41;;;;;;;3.45;2.70;;;23.10;47.50;;;;;;4994301;28;20034;-80
2022/09/01 11:24:38;;;;;;;2.85;2.55;;;23.20;47.40;;;;;;4996007;28;20053;-80
2022/09/01 11:27:05;;;;;;;5.70;2.40;;;23.10;46.70;;;;;;4994596;28;20030;-82
2022/09/01 11:30:02;;;;;;;3.05;2.53;;;23.20;45.90;;;;;;4974246;28;20062;-85
2022/09/01 11:32:34;;;;;;;3.65;2.90;;;23.20;46.50;;;;;;4974814;28;20027;-83
2022/09/01 11:35:17;;;;;;;3.90;2.63;;;23.00;45.00;;;;;;4974648;28;20065;-83
2022/09/01 11:37:46;;;;;;;2.47;2.20;;;23.40;44.40;;;;;;4974547;28;20070;-80
2022/09/01 11:40:23;;;;;;;4.13;2.13;;;23.40;44.70;;;;;;4975586;28;20026;-79
2022/09/01 11:42:51;;;;;;;9.82;3.47;;;23.70;45.10;;;;;;5015688;28;20094;-77
2022/09/01 11:45:20;;;;;;;4.32;2.67;;;23.70;43.80;;;;;;4995614;28;20018;-78
2022/09/01 11:47:54;;;;;;;3.10;2.15;;;23.70;43.60;;;;;;4993911;28;20030;-78
2022/09/01 11:50:32;;;;;;;4.18;2.47;;;23.40;44.20;;;;;;4993716;28;20164;-80
2022/09/01 11:53:02;;;;;;;3.45;2.28;;;23.20;45.80;;;;;;4994428;28;20384;-80
2022/09/01 11:55:32;;;;;;;3.97;2.45;;;22.90;45.70;;;;;;5002401;28;20398;-80
2022/09/01 11:57:58;;;;;;;3.70;2.65;;;22.70;47.50;;;;;;4996779;28;20417;-77
2022/09/01 12:00:28;;;;;;;4.88;2.45;;;22.90;48.40;;;;;;4996455;28;20033;-79
2022/09/01 12:02:54;;;;;;;4.72;2.42;;;23.00;48.10;;;;;;4996297;28;20038;-78
2022/09/01 12:05:32;;;;;;;11.52;2.83;;;23.10;47.60;;;;;;4998957;28;20429;-79
2022/09/01 12:08:29;;;;;;;12.27;3.50;;;23.20;46.70;;;;;;5002455;28;20022;-82
2022/09/01 12:11:51;;;;;;;3.33;2.40;;;23.40;46.60;;;;;;5012655;28;20113;-82
2022/09/01 12:15:00;;;;;;;5.38;2.00;;;23.70;44.10;;;;;;4906663;29;20031;-84
2022/09/01 12:21:11;;;;;;;2.38;2.15;;;23.90;44.00;;;;;;4939071;29;20067;-88
2022/09/01 12:23:44;;;;;;;3.83;2.05;;;24.20;43.70;;;;;;4906919;29;20044;-80
2022/09/01 12:27:05;;;;;;;2.88;2.17;;;24.40;42.90;;;;;;4891193;29;20047;-90
2022/09/01 12:30:18;;;;;;;3.75;2.10;;;24.10;41.50;;;;;;4916447;29;20092;-81
2022/09/01 12:33:24;;;;;;;3.45;2.10;;;24.00;44.10;;;;;;4899204;29;20119;-83
2022/09/01 12:36:45;;;;;;;2.60;2.40;;;24.10;43.90;;;;;;4934720;28;20373;-81
2022/09/01 12:39:23;;;;;;;3.63;2.60;;;23.90;43.60;;;;;;4882406;29;20049;-85
2022/09/01 12:42:38;;;;;;;2.65;2.45;;;24.00;44.10;;;;;;4899004;29;20036;-85
2022/09/01 12:46:05;;;;;;;5.35;2.20;;;24.30;43.60;;;;;;4883313;29;20056;-85
2022/09/01 12:49:41;;;;;;;5.88;2.65;;;24.70;42.30;;;;;;4877072;29;20028;-86
2022/09/01 12:52:34;;;;;;;2.20;2.00;;;24.90;41.60;;;;;;4900883;29;20043;-84
2022/09/01 12:55:48;;;;;;;1.77;1.65;;;25.30;39.70;;;;;;4864823;29;20124;-82
2022/09/01 12:59:26;;;;;;;3.03;1.73;;;25.40;39.20;;;;;;4881382;29;20045;-84
2022/09/01 13:03:01;;;;;;;2.80;2.13;;;25.40;39.20;;;;;;4819650;29;20029;-84
2022/09/01 13:06:37;;;;;;;1.85;1.67;;;25.70;39.30;;;;;;4837839;29;20049;-84
2022/09/01 13:13:34;;;;;;;2.00;1.80;;;25.40;37.50;;;;;;4876535;29;20252;-84
2022/09/01 13:16:38;;;;;;;;;;;25.60;38.70;;;;;;4873997;29;20029;-83
2022/09/01 13:20:36;;;;;;;1.77;1.60;;;26.00;38.60;;;;;;4821838;29;19918;-83
2022/09/01 13:23:49;;;;;;;2.00;1.77;;;26.30;36.20;;;;;;4839686;29;20041;-84
2022/09/01 13:26:57;;;;;;;2.25;2.05;;;26.20;36.10;;;;;;4871826;29;20112;-83